createdAt,value
2023-04-06T00:01:59.948Z,10.17
2023-04-06T00:05:02.539Z,11.50
2023-04-06T00:08:05.446Z,12.90
2023-04-06T00:11:08.000Z,12.98
2023-04-06T00:14:11.868Z,11.97
2023-04-06T00:20:17.319Z,14.17
2023-04-06T00:23:19.865Z,7.55
2023-04-06T00:26:22.481Z,13.73
2023-04-06T00:29:26.499Z,10.27
2023-04-06T00:32:29.131Z,11.33
2023-04-06T00:35:31.705Z,11.27
2023-04-06T00:38:34.264Z,9.77
2023-04-06T00:41:36.860Z,12.30
2023-04-06T00:44:40.910Z,9.53
2023-04-06T00:47:43.644Z,17.03
2023-04-06T00:50:46.161Z,10.57
2023-04-06T00:53:48.702Z,14.47
2023-04-06T00:56:51.365Z,12.13
2023-04-06T00:59:55.472Z,11.03
2023-04-06T01:02:58.206Z,12.97
2023-04-06T01:06:00.814Z,14.07
2023-04-06T01:09:03.353Z,12.80
2023-04-06T01:12:06.076Z,15.13
2023-04-06T01:15:11.355Z,10.63
2023-04-06T01:18:14.128Z,13.93
2023-04-06T01:21:17.501Z,13.83
2023-04-06T01:24:21.473Z,11.93
2023-04-06T01:27:24.061Z,13.00
2023-04-06T01:30:27.430Z,14.20
2023-04-06T01:33:29.992Z,16.30
2023-04-06T01:36:32.634Z,14.23
2023-04-06T01:39:36.789Z,15.87
2023-04-06T01:42:39.332Z,15.53
2023-04-06T01:45:41.869Z,9.93
2023-04-06T01:48:44.543Z,14.57
2023-04-06T01:51:47.076Z,12.20
2023-04-06T01:54:51.086Z,11.60
2023-04-06T01:57:53.590Z,16.43
2023-04-06T02:00:56.362Z,12.90
2023-04-06T02:03:58.937Z,13.17
2023-04-06T02:07:01.463Z,12.50
2023-04-06T02:10:06.252Z,9.77
2023-04-06T02:13:08.888Z,11.13
2023-04-06T02:16:11.467Z,11.20
2023-04-06T02:19:14.128Z,13.30
2023-04-06T02:22:16.962Z,11.20
2023-04-06T02:25:21.091Z,16.33
2023-04-06T02:28:23.637Z,16.47
2023-04-06T02:31:26.229Z,14.23
2023-04-06T02:34:28.756Z,11.23
2023-04-06T02:37:31.364Z,14.20
2023-04-06T02:40:35.338Z,14.27
2023-04-06T02:43:37.874Z,17.33
2023-04-06T02:46:40.405Z,13.50
2023-04-06T02:49:42.978Z,15.80
2023-04-06T02:52:45.570Z,12.63
2023-04-06T02:55:49.452Z,10.90
2023-04-06T03:01:54.445Z,11.83
2023-04-06T03:04:57.064Z,14.47
2023-04-06T03:07:59.671Z,15.43
2023-04-06T03:11:03.561Z,15.13
2023-04-06T03:17:08.447Z,13.10
2023-04-06T03:20:11.785Z,12.50
2023-04-06T03:23:14.377Z,15.15
2023-04-06T03:26:18.296Z,15.67
2023-04-06T03:32:26.269Z,12.97
2023-04-06T03:35:31.741Z,11.87
2023-04-06T03:38:43.097Z,11.33
2023-04-06T03:42:10.799Z,9.70
2023-04-06T03:45:25.654Z,12.83
2023-04-06T03:53:11.717Z,16.13
2023-04-06T03:56:26.082Z,13.83
2023-04-06T03:59:58.011Z,13.30
2023-04-06T04:03:51.907Z,11.50
2023-04-06T04:07:04.354Z,12.03
2023-04-06T04:10:07.649Z,13.80
2023-04-06T04:13:10.273Z,13.38
2023-04-06T04:16:14.403Z,12.77
2023-04-06T04:19:17.131Z,14.97
2023-04-06T04:22:19.644Z,16.60
2023-04-06T04:25:22.243Z,15.17
2023-04-06T04:28:24.875Z,16.00
2023-04-06T04:31:28.879Z,16.50
2023-04-06T04:34:32.176Z,11.67
2023-04-06T04:37:35.729Z,15.70
2023-04-06T04:40:38.234Z,12.82
2023-04-06T04:43:40.919Z,15.07
2023-04-06T04:46:44.715Z,13.43
2023-04-06T04:49:47.283Z,14.37
2023-04-06T04:52:49.993Z,12.37
2023-04-06T04:55:52.747Z,11.40
2023-04-06T04:58:55.462Z,15.60
2023-04-06T05:01:59.488Z,14.73
2023-04-06T05:05:02.107Z,14.50
2023-04-06T05:08:05.116Z,12.83
2023-04-06T05:11:07.662Z,11.07
2023-04-06T05:14:10.397Z,11.20
2023-04-06T05:17:14.534Z,14.17
2023-04-06T05:20:17.369Z,12.17
2023-04-06T05:23:20.120Z,17.70
2023-04-06T05:26:22.616Z,15.13
2023-04-06T05:29:25.500Z,14.03
2023-04-06T05:32:29.463Z,12.47
2023-04-06T05:35:32.334Z,14.60
2023-04-06T05:38:35.317Z,15.17
2023-04-06T05:41:37.916Z,16.42
2023-04-06T05:44:40.548Z,12.93
2023-04-06T05:47:45.067Z,16.47
2023-04-06T05:50:50.550Z,13.30
2023-04-06T05:53:53.072Z,16.17
2023-04-06T05:56:55.707Z,15.13
2023-04-06T05:59:58.222Z,19.57
2023-04-06T06:03:05.291Z,19.13
2023-04-06T06:06:07.901Z,17.93
2023-04-06T06:09:10.594Z,12.40
2023-04-06T06:12:14.669Z,13.20
2023-04-06T06:15:17.498Z,17.50
2023-04-06T06:18:21.704Z,14.80
2023-04-06T06:21:24.257Z,12.90
2023-04-06T06:24:26.755Z,14.50
2023-04-06T06:27:43.062Z,15.07
2023-04-06T06:30:45.786Z,13.13
2023-04-06T06:33:51.229Z,13.70
2023-04-06T06:36:56.147Z,13.23
2023-04-06T06:39:58.728Z,16.50
2023-04-06T06:43:01.286Z,15.40
2023-04-06T06:46:03.930Z,15.27
2023-04-06T06:49:07.845Z,14.50
2023-04-06T06:55:13.060Z,15.00
2023-04-06T06:58:15.598Z,15.10
2023-04-06T07:01:18.189Z,21.07
2023-04-06T07:04:22.360Z,22.53
2023-04-06T07:07:24.913Z,17.23
2023-04-06T07:10:28.679Z,16.17
2023-04-06T07:16:33.630Z,14.83
2023-04-06T07:19:37.718Z,14.10
2023-04-06T07:22:40.351Z,15.20
2023-04-06T07:25:43.127Z,15.43
2023-04-06T07:28:46.305Z,19.33
2023-04-06T07:31:50.005Z,15.65
2023-04-06T07:34:54.067Z,23.17
2023-04-06T07:37:56.572Z,14.83
2023-04-06T07:40:59.436Z,15.23
2023-04-06T07:44:02.046Z,16.20
2023-04-06T07:47:04.726Z,17.90
2023-04-06T07:50:09.543Z,18.13
2023-04-06T07:53:12.165Z,17.37
2023-04-06T07:56:16.417Z,15.47
2023-04-06T07:59:19.030Z,13.60
2023-04-06T08:02:21.843Z,13.43
2023-04-06T08:05:25.975Z,15.67
2023-04-06T08:08:28.596Z,26.10
2023-04-06T08:11:31.170Z,20.03
2023-04-06T08:14:33.740Z,18.77
2023-04-06T08:17:36.476Z,13.97
2023-04-06T08:20:40.865Z,15.20
2023-04-06T08:23:43.367Z,20.10
2023-04-06T08:26:46.132Z,13.90
2023-04-06T08:29:51.123Z,18.27
2023-04-06T08:32:53.766Z,15.00
2023-04-06T08:35:57.773Z,15.17
2023-04-06T08:39:01.513Z,20.23
2023-04-06T08:45:08.468Z,17.27
2023-04-06T08:51:14.865Z,22.33
2023-04-06T08:54:17.533Z,14.67
2023-04-06T08:57:20.968Z,17.60
2023-04-06T09:00:24.036Z,17.40
2023-04-06T09:03:28.490Z,12.45
2023-04-06T09:06:32.949Z,15.93
2023-04-06T09:09:35.616Z,16.03
2023-04-06T09:12:38.216Z,17.90
2023-04-06T09:15:42.177Z,15.03
2023-04-06T09:18:44.909Z,13.97
2023-04-06T09:21:49.158Z,15.30
2023-04-06T09:24:53.061Z,12.50
2023-04-06T09:28:02.349Z,15.70
2023-04-06T09:31:05.045Z,16.20
2023-04-06T09:34:07.891Z,18.73
2023-04-06T09:37:15.960Z,11.90
2023-04-06T09:40:20.004Z,13.30
2023-04-06T09:43:27.082Z,10.73
2023-04-06T09:46:29.772Z,10.33
2023-04-06T09:49:33.077Z,12.52
2023-04-06T09:52:40.390Z,9.82
2023-04-06T09:55:45.283Z,9.63
2023-04-06T09:58:48.866Z,11.50
2023-04-06T10:04:59.118Z,8.87
2023-04-06T10:08:06.739Z,8.10
2023-04-06T10:11:09.976Z,8.47
2023-04-06T10:14:12.861Z,14.13
2023-04-06T10:17:15.561Z,9.88
2023-04-06T10:20:23.089Z,10.07
2023-04-06T10:23:33.093Z,7.43
2023-04-06T10:26:35.664Z,7.20
2023-04-06T10:29:46.213Z,10.43
2023-04-06T10:32:48.713Z,11.97
2023-04-06T10:35:51.349Z,11.00
2023-04-06T10:38:59.701Z,8.07
2023-04-06T10:42:08.770Z,7.00
2023-04-06T10:45:21.542Z,10.67
2023-04-06T10:48:24.873Z,10.00
2023-04-06T10:51:29.448Z,13.40
2023-04-06T10:54:33.790Z,12.10
2023-04-06T10:57:37.470Z,9.13
2023-04-06T11:00:50.556Z,9.30
2023-04-06T11:03:58.896Z,9.37
2023-04-06T11:07:01.517Z,8.03
2023-04-06T11:10:15.998Z,7.93
2023-04-06T11:13:20.348Z,8.97
2023-04-06T11:16:23.902Z,8.03
2023-04-06T11:22:28.995Z,7.47
2023-04-06T11:25:33.668Z,6.10
2023-04-06T11:28:36.884Z,7.73
2023-04-06T11:31:43.311Z,7.38
2023-04-06T11:34:49.023Z,8.47
2023-04-06T11:37:52.144Z,7.57
2023-04-06T11:40:56.449Z,10.98
2023-04-06T11:43:59.212Z,8.27
2023-04-06T11:47:02.897Z,9.45
2023-04-06T11:50:09.533Z,7.50
2023-04-06T11:53:12.106Z,9.17
2023-04-06T11:56:26.465Z,8.13
2023-04-06T11:59:29.376Z,8.83
2023-04-06T12:02:33.254Z,6.90
2023-04-06T12:05:36.172Z,15.10
2023-04-06T12:08:38.935Z,12.32
2023-04-06T12:11:43.001Z,8.25
2023-04-06T12:14:45.670Z,7.10
2023-04-06T12:17:48.370Z,6.28
2023-04-06T12:20:51.102Z,7.65
2023-04-06T12:23:53.633Z,4.93
2023-04-06T12:27:08.772Z,6.37
2023-04-06T12:30:13.811Z,6.37
2023-04-06T12:36:20.805Z,4.77
2023-04-06T12:39:23.685Z,6.20
2023-04-06T12:42:27.549Z,6.60
2023-04-06T12:45:30.262Z,5.43
2023-04-06T12:48:33.213Z,8.02
2023-04-06T12:51:35.774Z,6.03
2023-04-06T12:54:38.345Z,9.50
2023-04-06T12:57:42.637Z,9.02
2023-04-06T13:00:46.683Z,7.33
2023-04-06T13:03:49.410Z,7.00
2023-04-06T13:06:51.944Z,6.63
2023-04-06T13:09:54.901Z,7.15
2023-04-06T13:12:58.776Z,4.82
2023-04-06T13:16:03.103Z,7.23
2023-04-06T13:19:05.805Z,6.83
2023-04-06T13:22:11.320Z,6.03
2023-04-06T13:25:13.947Z,6.07
2023-04-06T13:28:17.794Z,10.38
2023-04-06T13:31:20.691Z,6.87
2023-04-06T13:34:23.262Z,6.97
2023-04-06T13:37:26.134Z,11.98
2023-04-06T13:40:28.672Z,12.02
2023-04-06T13:43:32.583Z,6.72
2023-04-06T13:46:35.086Z,6.07
2023-04-06T13:49:37.914Z,5.60
2023-04-06T13:52:40.543Z,5.88
2023-04-06T13:55:43.143Z,7.68
2023-04-06T13:58:47.163Z,6.55
2023-04-06T14:01:50.263Z,6.10
2023-04-06T14:04:52.969Z,8.70
2023-04-06T14:07:56.306Z,5.60
2023-04-06T14:14:02.933Z,7.30
2023-04-06T14:17:05.769Z,6.33
2023-04-06T14:20:14.794Z,5.90
2023-04-06T14:23:17.421Z,7.77
2023-04-06T14:26:20.583Z,6.07
2023-04-06T14:29:24.448Z,9.75
2023-04-06T14:32:27.598Z,8.83
2023-04-06T14:35:31.643Z,10.40
2023-04-06T14:38:34.581Z,8.37
2023-04-06T14:41:37.211Z,7.63
2023-04-06T14:44:43.971Z,7.13
2023-04-06T14:47:46.515Z,6.33
2023-04-06T14:50:54.266Z,6.53
2023-04-06T14:53:56.957Z,7.07
2023-04-06T14:56:59.549Z,6.30
2023-04-06T15:00:04.437Z,9.15
2023-04-06T15:03:07.166Z,6.53
2023-04-06T15:06:16.165Z,7.38
2023-04-06T15:09:18.792Z,8.13
2023-04-06T15:12:21.457Z,6.85
2023-04-06T15:15:25.656Z,9.65
2023-04-06T15:18:28.402Z,7.47
2023-04-06T15:21:31.258Z,6.53
2023-04-06T15:24:33.998Z,9.57
2023-04-06T15:27:36.582Z,7.40
2023-04-06T15:30:40.757Z,7.18
2023-04-06T15:33:44.730Z,7.30
2023-04-06T15:36:47.883Z,8.73
2023-04-06T15:39:50.883Z,8.18
2023-04-06T15:42:53.425Z,9.00
2023-04-06T15:45:57.305Z,10.32
2023-04-06T15:49:00.114Z,7.27
2023-04-06T15:52:02.682Z,8.90
2023-04-06T15:55:07.083Z,5.85
2023-04-06T15:58:09.807Z,8.20
2023-04-06T16:01:15.284Z,8.45
2023-04-06T16:04:17.954Z,9.57
2023-04-06T16:07:20.930Z,7.72
2023-04-06T16:10:23.467Z,5.78
2023-04-06T16:13:26.263Z,6.60
2023-04-06T16:16:30.534Z,8.27
2023-04-06T16:19:33.199Z,9.63
2023-04-06T16:22:36.740Z,17.77
2023-04-06T16:25:39.845Z,7.00
2023-04-06T16:28:42.510Z,10.57
2023-04-06T16:31:47.942Z,7.47
2023-04-06T16:34:50.990Z,10.77
2023-04-06T16:37:53.582Z,9.68
2023-04-06T16:41:01.234Z,10.55
2023-04-06T16:44:03.949Z,7.33
2023-04-06T16:47:08.476Z,8.88
2023-04-06T16:50:12.081Z,10.50
2023-04-06T16:53:14.782Z,15.30
2023-04-06T16:56:17.485Z,14.88
2023-04-06T16:59:20.487Z,10.40
2023-04-06T17:02:24.602Z,12.05
2023-04-06T17:05:27.675Z,11.27
2023-04-06T17:08:30.387Z,10.32
2023-04-06T17:11:43.746Z,13.23
2023-04-06T17:14:49.060Z,11.60
2023-04-06T17:17:54.077Z,12.68
2023-04-06T17:20:56.721Z,8.70
2023-04-06T17:23:59.442Z,10.80
2023-04-06T17:27:02.736Z,8.13
2023-04-06T17:30:06.451Z,10.63
2023-04-06T17:39:15.584Z,7.97
2023-04-06T17:42:18.836Z,7.40
2023-04-06T17:45:21.488Z,9.95
2023-04-06T17:48:26.669Z,7.23
2023-04-06T17:51:29.300Z,8.40
2023-04-06T17:54:31.950Z,6.87
2023-04-06T17:57:34.585Z,6.20
2023-04-06T18:00:37.250Z,8.30
2023-04-06T18:03:41.432Z,6.93
2023-04-06T18:06:44.095Z,7.83
2023-04-06T18:09:46.696Z,6.15
2023-04-06T18:12:49.482Z,10.07
2023-04-06T18:15:54.207Z,7.05
2023-04-06T18:18:58.351Z,8.17
2023-04-06T18:22:01.544Z,11.13
2023-04-06T18:25:04.091Z,8.80
2023-04-06T18:28:06.947Z,13.17
2023-04-06T18:31:09.547Z,9.30
2023-04-06T18:34:13.608Z,8.05
2023-04-06T18:37:16.330Z,8.43
2023-04-06T18:40:34.732Z,8.07
2023-04-06T18:43:37.966Z,11.13
2023-04-06T18:46:40.849Z,7.22
2023-04-06T18:49:44.781Z,5.25
2023-04-06T18:52:47.407Z,8.67
2023-04-06T18:55:51.469Z,5.30
2023-04-06T18:58:54.140Z,6.40
2023-04-06T19:01:56.916Z,7.97
2023-04-06T19:05:03.416Z,6.07
2023-04-06T19:08:06.181Z,6.73
2023-04-06T19:11:09.003Z,6.00
2023-04-06T19:14:11.609Z,9.95
2023-04-06T19:17:14.142Z,9.77
2023-04-06T19:20:18.573Z,10.27
2023-04-06T19:23:21.457Z,5.77
2023-04-06T19:26:27.017Z,11.80
2023-04-06T19:29:29.704Z,10.23
2023-04-06T19:32:32.389Z,6.95
2023-04-06T19:35:36.555Z,7.65
2023-04-06T19:38:39.358Z,8.10
2023-04-06T19:41:41.853Z,5.15
2023-04-06T19:44:44.427Z,10.80
2023-04-06T19:47:47.386Z,6.13
2023-04-06T19:50:53.548Z,4.28
2023-04-06T19:53:56.136Z,5.93
2023-04-06T19:56:58.696Z,5.43
2023-04-06T20:00:01.279Z,5.47
2023-04-06T20:03:04.052Z,3.23
2023-04-06T20:06:08.217Z,4.35
2023-04-06T20:09:11.942Z,4.47
2023-04-06T20:12:14.470Z,2.67
2023-04-06T20:15:17.316Z,2.80
2023-04-06T20:18:19.948Z,3.10
2023-04-06T20:21:24.123Z,3.67
2023-04-06T20:24:26.779Z,2.90
2023-04-06T20:27:29.300Z,4.93
2023-04-06T20:30:32.232Z,4.57
2023-04-06T20:33:35.353Z,2.88
2023-04-06T20:36:40.050Z,6.15
2023-04-06T20:39:42.876Z,7.20
2023-04-06T20:42:46.177Z,4.57
2023-04-06T20:45:49.522Z,3.88
2023-04-06T20:48:53.430Z,5.80
2023-04-06T20:51:57.454Z,3.53
2023-04-06T20:55:01.484Z,4.73
2023-04-06T20:58:04.035Z,3.53
2023-04-06T21:01:12.787Z,7.23
2023-04-06T21:04:15.824Z,4.93
2023-04-06T21:07:20.064Z,3.63
2023-04-06T21:10:23.672Z,4.70
2023-04-06T21:16:28.775Z,4.67
2023-04-06T21:19:31.279Z,4.17
2023-04-06T21:22:35.538Z,6.07
2023-04-06T21:25:38.456Z,5.87
2023-04-06T21:28:41.009Z,5.95
2023-04-06T21:31:43.600Z,4.80
2023-04-06T21:34:46.621Z,6.77
2023-04-06T21:37:50.612Z,5.72
2023-04-06T21:40:56.625Z,6.07
2023-04-06T21:43:59.422Z,6.13
2023-04-06T21:47:02.077Z,8.57
2023-04-06T21:50:05.328Z,7.50
2023-04-06T21:53:09.321Z,7.43
2023-04-06T21:56:11.924Z,8.37
2023-04-06T21:59:15.741Z,7.43
2023-04-06T22:02:18.440Z,7.40
2023-04-06T22:05:21.081Z,8.40
2023-04-06T22:08:33.384Z,8.40
2023-04-06T22:11:36.681Z,11.70
2023-04-06T22:14:39.141Z,9.87
2023-04-06T22:17:41.876Z,10.80
2023-04-06T22:20:44.645Z,7.72
2023-04-06T22:23:48.685Z,9.85
2023-04-06T22:26:51.227Z,10.47
2023-04-06T22:29:53.915Z,10.53
2023-04-06T22:32:56.504Z,10.23
2023-04-06T22:35:59.073Z,8.13
2023-04-06T22:39:03.053Z,12.23
2023-04-06T22:42:06.384Z,9.67
2023-04-06T22:45:09.717Z,10.25
2023-04-06T22:48:12.240Z,10.68
2023-04-06T22:51:14.904Z,7.87
2023-04-06T22:54:19.194Z,8.13
2023-04-06T22:57:22.550Z,9.17
2023-04-06T23:00:25.397Z,12.57
2023-04-06T23:03:28.154Z,10.40
2023-04-06T23:06:31.286Z,9.52
2023-04-06T23:09:35.100Z,9.80
2023-04-06T23:12:37.644Z,7.90
2023-04-06T23:15:40.188Z,11.37
2023-04-06T23:18:42.748Z,10.00
2023-04-06T23:21:45.302Z,9.30
2023-04-06T23:24:50.077Z,8.10
2023-04-06T23:27:53.065Z,8.33
2023-04-06T23:30:55.595Z,7.97
2023-04-06T23:33:58.099Z,10.53
2023-04-06T23:37:02.865Z,9.57
2023-04-06T23:40:08.659Z,11.00
2023-04-06T23:43:11.262Z,11.43
2023-04-06T23:46:16.874Z,10.33
2023-04-06T23:49:19.498Z,8.40
2023-04-06T23:52:22.132Z,11.47
2023-04-06T23:55:26.254Z,8.97
2023-04-06T23:58:28.916Z,9.67
